sensor_id;sensor_type;location;lat;lon;timestamp;temperature;humidity
1107;DHT22;540;49.448;8.612;2023-02-28T00:01:11;1.90;68.90
1107;DHT22;540;49.448;8.612;2023-02-28T00:03:39;2.10;68.40
1107;DHT22;540;49.448;8.612;2023-02-28T00:06:08;1.80;68.40
1107;DHT22;540;49.448;8.612;2023-02-28T00:08:36;1.90;68.30
1107;DHT22;540;49.448;8.612;2023-02-28T00:11:07;1.80;69.10
1107;DHT22;540;49.448;8.612;2023-02-28T00:13:38;1.80;68.40
1107;DHT22;540;49.448;8.612;2023-02-28T00:16:08;1.70;69.80
1107;DHT22;540;49.448;8.612;2023-02-28T00:18:36;2.00;69.00
1107;DHT22;540;49.448;8.612;2023-02-28T00:21:04;1.80;68.60
1107;DHT22;540;49.448;8.612;2023-02-28T00:23:32;1.70;68.90
1107;DHT22;540;49.448;8.612;2023-02-28T00:26:00;1.60;69.20
1107;DHT22;540;49.448;8.612;2023-02-28T00:28:28;1.60;69.40
1107;DHT22;540;49.448;8.612;2023-02-28T00:30:57;1.70;69.50
1107;DHT22;540;49.448;8.612;2023-02-28T00:33:26;1.50;69.60
1107;DHT22;540;49.448;8.612;2023-02-28T00:36:02;1.80;70.60
1107;DHT22;540;49.448;8.612;2023-02-28T00:38:31;1.50;70.30
1107;DHT22;540;49.448;8.612;2023-02-28T00:40:58;1.40;70.60
1107;DHT22;540;49.448;8.612;2023-02-28T00:43:32;1.40;71.70
1107;DHT22;540;49.448;8.612;2023-02-28T00:46:02;1.30;71.50
1107;DHT22;540;49.448;8.612;2023-02-28T00:48:30;1.30;72.40
1107;DHT22;540;49.448;8.612;2023-02-28T00:50:58;1.40;73.30
1107;DHT22;540;49.448;8.612;2023-02-28T00:53:26;1.40;72.80
1107;DHT22;540;49.448;8.612;2023-02-28T00:55:54;1.30;73.00
1107;DHT22;540;49.448;8.612;2023-02-28T00:58:21;1.20;73.40
1107;DHT22;540;49.448;8.612;2023-02-28T01:00:50;1.20;73.50
1107;DHT22;540;49.448;8.612;2023-02-28T01:03:20;1.20;73.60
1107;DHT22;540;49.448;8.612;2023-02-28T01:05:49;1.30;74.50
1107;DHT22;540;49.448;8.612;2023-02-28T01:08:17;1.20;74.80
1107;DHT22;540;49.448;8.612;2023-02-28T01:10:45;1.20;75.60
1107;DHT22;540;49.448;8.612;2023-02-28T01:13:13;1.20;75.60
1107;DHT22;540;49.448;8.612;2023-02-28T01:15:43;1.20;76.00
1107;DHT22;540;49.448;8.612;2023-02-28T01:18:12;1.10;77.10
1107;DHT22;540;49.448;8.612;2023-02-28T01:20:41;1.30;76.30
1107;DHT22;540;49.448;8.612;2023-02-28T01:23:09;0.70;76.10
1107;DHT22;540;49.448;8.612;2023-02-28T01:25:37;1.20;76.70
1107;DHT22;540;49.448;8.612;2023-02-28T01:28:05;1.10;77.00
1107;DHT22;540;49.448;8.612;2023-02-28T01:30:33;1.20;77.30
1107;DHT22;540;49.448;8.612;2023-02-28T01:33:01;1.00;76.60
1107;DHT22;540;49.448;8.612;2023-02-28T01:35:32;1.10;76.60
1107;DHT22;540;49.448;8.612;2023-02-28T01:38:01;1.10;76.20
1107;DHT22;540;49.448;8.612;2023-02-28T01:40:47;1.10;76.70
1107;DHT22;540;49.448;8.612;2023-02-28T01:43:20;1.20;77.00
1107;DHT22;540;49.448;8.612;2023-02-28T01:45:49;1.20;77.50
1107;DHT22;540;49.448;8.612;2023-02-28T01:48:18;1.00;77.70
1107;DHT22;540;49.448;8.612;2023-02-28T01:50:47;1.00;78.60
1107;DHT22;540;49.448;8.612;2023-02-28T01:53:19;1.00;78.00
1107;DHT22;540;49.448;8.612;2023-02-28T01:55:51;1.10;78.50
1107;DHT22;540;49.448;8.612;2023-02-28T01:58:20;0.90;78.40
1107;DHT22;540;49.448;8.612;2023-02-28T02:00:48;1.20;79.50
1107;DHT22;540;49.448;8.612;2023-02-28T02:03:18;0.90;80.50
1107;DHT22;540;49.448;8.612;2023-02-28T02:05:47;1.00;79.70
1107;DHT22;540;49.448;8.612;2023-02-28T02:08:19;1.60;80.60
1107;DHT22;540;49.448;8.612;2023-02-28T02:10:50;0.90;81.10
1107;DHT22;540;49.448;8.612;2023-02-28T02:13:40;0.90;81.00
1107;DHT22;540;49.448;8.612;2023-02-28T02:16:26;0.80;82.00
1107;DHT22;540;49.448;8.612;2023-02-28T02:19:02;0.80;81.50
1107;DHT22;540;49.448;8.612;2023-02-28T02:24:54;0.80;82.90
1107;DHT22;540;49.448;8.612;2023-02-28T02:30:40;0.80;83.70
1107;DHT22;540;49.448;8.612;2023-02-28T02:36:21;0.80;83.50
1107;DHT22;540;49.448;8.612;2023-02-28T02:38:53;0.60;83.10
1107;DHT22;540;49.448;8.612;2023-02-28T02:41:26;0.60;84.40
1107;DHT22;540;49.448;8.612;2023-02-28T02:44:01;0.60;83.50
1107;DHT22;540;49.448;8.612;2023-02-28T02:46:33;0.60;84.30
1107;DHT22;540;49.448;8.612;2023-02-28T02:49:05;0.70;84.30
1107;DHT22;540;49.448;8.612;2023-02-28T02:51:36;0.80;84.80
1107;DHT22;540;49.448;8.612;2023-02-28T02:54:08;0.60;85.50
1107;DHT22;540;49.448;8.612;2023-02-28T02:56:38;0.60;85.10
1107;DHT22;540;49.448;8.612;2023-02-28T02:59:10;0.60;84.60
1107;DHT22;540;49.448;8.612;2023-02-28T03:01:40;0.40;84.30
1107;DHT22;540;49.448;8.612;2023-02-28T03:04:11;0.50;84.90
1107;DHT22;540;49.448;8.612;2023-02-28T03:06:42;0.60;86.10
1107;DHT22;540;49.448;8.612;2023-02-28T03:09:10;0.30;85.00
1107;DHT22;540;49.448;8.612;2023-02-28T03:11:38;0.60;86.10
1107;DHT22;540;49.448;8.612;2023-02-28T03:14:29;0.70;86.80
1107;DHT22;540;49.448;8.612;2023-02-28T03:20:00;0.60;87.50
1107;DHT22;540;49.448;8.612;2023-02-28T03:22:46;0.70;87.00
1107;DHT22;540;49.448;8.612;2023-02-28T03:25:26;0.60;85.90
1107;DHT22;540;49.448;8.612;2023-02-28T03:28:01;0.50;87.60
1107;DHT22;540;49.448;8.612;2023-02-28T03:30:36;0.10;86.80
1107;DHT22;540;49.448;8.612;2023-02-28T03:33:08;0.50;86.30
1107;DHT22;540;49.448;8.612;2023-02-28T03:35:39;0.20;87.00
1107;DHT22;540;49.448;8.612;2023-02-28T03:38:14;0.50;86.30
1107;DHT22;540;49.448;8.612;2023-02-28T03:40:49;0.30;86.30
1107;DHT22;540;49.448;8.612;2023-02-28T03:43:22;0.60;87.80
1107;DHT22;540;49.448;8.612;2023-02-28T03:45:54;0.40;90.00
1107;DHT22;540;49.448;8.612;2023-02-28T03:48:27;0.60;89.80
1107;DHT22;540;49.448;8.612;2023-02-28T03:51:00;0.50;90.00
1107;DHT22;540;49.448;8.612;2023-02-28T03:53:33;0.70;89.00
1107;DHT22;540;49.448;8.612;2023-02-28T03:56:06;-0.20;87.40
1107;DHT22;540;49.448;8.612;2023-02-28T03:58:39;0.50;87.00
1107;DHT22;540;49.448;8.612;2023-02-28T04:01:11;0.40;87.50
1107;DHT22;540;49.448;8.612;2023-02-28T04:03:40;0.70;87.90
1107;DHT22;540;49.448;8.612;2023-02-28T04:06:15;0.40;86.90
1107;DHT22;540;49.448;8.612;2023-02-28T04:08:44;0.40;86.30
1107;DHT22;540;49.448;8.612;2023-02-28T04:11:19;0.40;86.60
1107;DHT22;540;49.448;8.612;2023-02-28T04:13:47;0.60;87.20
1107;DHT22;540;49.448;8.612;2023-02-28T04:16:16;0.50;86.90
1107;DHT22;540;49.448;8.612;2023-02-28T04:19:00;0.20;87.30
1107;DHT22;540;49.448;8.612;2023-02-28T04:21:29;0.60;87.10
1107;DHT22;540;49.448;8.612;2023-02-28T04:23:59;0.60;87.00
1107;DHT22;540;49.448;8.612;2023-02-28T04:26:29;0.30;87.20
1107;DHT22;540;49.448;8.612;2023-02-28T04:28:58;0.40;86.90
1107;DHT22;540;49.448;8.612;2023-02-28T04:31:26;0.30;86.70
1107;DHT22;540;49.448;8.612;2023-02-28T04:33:55;0.50;87.20
1107;DHT22;540;49.448;8.612;2023-02-28T04:36:23;0.50;87.60
1107;DHT22;540;49.448;8.612;2023-02-28T04:38:50;0.40;88.60
1107;DHT22;540;49.448;8.612;2023-02-28T04:41:20;0.30;88.20
1107;DHT22;540;49.448;8.612;2023-02-28T04:43:50;0.00;88.20
1107;DHT22;540;49.448;8.612;2023-02-28T04:46:18;0.50;88.10
1107;DHT22;540;49.448;8.612;2023-02-28T04:48:46;0.50;88.60
1107;DHT22;540;49.448;8.612;2023-02-28T04:51:16;0.30;87.20
1107;DHT22;540;49.448;8.612;2023-02-28T04:53:44;0.40;88.10
1107;DHT22;540;49.448;8.612;2023-02-28T04:56:14;0.50;87.80
1107;DHT22;540;49.448;8.612;2023-02-28T04:58:43;0.20;87.80
1107;DHT22;540;49.448;8.612;2023-02-28T05:01:18;0.30;88.10
1107;DHT22;540;49.448;8.612;2023-02-28T05:03:46;0.60;88.70
1107;DHT22;540;49.448;8.612;2023-02-28T05:06:14;0.50;88.40
1107;DHT22;540;49.448;8.612;2023-02-28T05:08:43;0.40;88.20
1107;DHT22;540;49.448;8.612;2023-02-28T05:11:15;0.40;88.00
1107;DHT22;540;49.448;8.612;2023-02-28T05:13:46;0.70;86.20
1107;DHT22;540;49.448;8.612;2023-02-28T05:16:14;0.50;86.00
1107;DHT22;540;49.448;8.612;2023-02-28T05:18:42;0.50;86.10
1107;DHT22;540;49.448;8.612;2023-02-28T05:21:27;0.10;86.40
1107;DHT22;540;49.448;8.612;2023-02-28T05:23:56;0.80;86.40
1107;DHT22;540;49.448;8.612;2023-02-28T05:26:25;0.70;84.30
1107;DHT22;540;49.448;8.612;2023-02-28T05:28:54;0.60;85.50
1107;DHT22;540;49.448;8.612;2023-02-28T05:31:22;1.10;85.60
1107;DHT22;540;49.448;8.612;2023-02-28T05:33:50;0.60;84.30
1107;DHT22;540;49.448;8.612;2023-02-28T05:36:18;1.00;84.30
1107;DHT22;540;49.448;8.612;2023-02-28T05:38:47;1.00;84.40
1107;DHT22;540;49.448;8.612;2023-02-28T05:41:16;0.80;85.00
1107;DHT22;540;49.448;8.612;2023-02-28T05:43:46;1.10;84.10
1107;DHT22;540;49.448;8.612;2023-02-28T05:46:16;0.80;83.60
1107;DHT22;540;49.448;8.612;2023-02-28T05:48:46;0.80;83.50
1107;DHT22;540;49.448;8.612;2023-02-28T05:51:15;0.80;83.30
1107;DHT22;540;49.448;8.612;2023-02-28T05:53:43;0.80;83.40
1107;DHT22;540;49.448;8.612;2023-02-28T05:56:11;0.90;83.90
1107;DHT22;540;49.448;8.612;2023-02-28T05:58:38;0.80;82.10
1107;DHT22;540;49.448;8.612;2023-02-28T06:01:34;0.70;82.70
1107;DHT22;540;49.448;8.612;2023-02-28T06:04:04;0.80;82.30
1107;DHT22;540;49.448;8.612;2023-02-28T06:06:35;1.00;82.30
1107;DHT22;540;49.448;8.612;2023-02-28T06:09:12;0.70;82.00
1107;DHT22;540;49.448;8.612;2023-02-28T06:11:40;1.10;82.80
1107;DHT22;540;49.448;8.612;2023-02-28T06:14:14;0.70;81.80
1107;DHT22;540;49.448;8.612;2023-02-28T06:16:44;0.90;81.90
1107;DHT22;540;49.448;8.612;2023-02-28T06:19:12;0.90;81.80
1107;DHT22;540;49.448;8.612;2023-02-28T06:21:40;0.80;82.90
1107;DHT22;540;49.448;8.612;2023-02-28T06:24:08;1.00;82.70
1107;DHT22;540;49.448;8.612;2023-02-28T06:26:36;1.10;81.90
1107;DHT22;540;49.448;8.612;2023-02-28T06:29:04;1.10;81.60
1107;DHT22;540;49.448;8.612;2023-02-28T06:31:31;1.20;81.80
1107;DHT22;540;49.448;8.612;2023-02-28T06:34:01;1.10;81.00
1107;DHT22;540;49.448;8.612;2023-02-28T06:36:29;0.90;80.40
1107;DHT22;540;49.448;8.612;2023-02-28T06:38:57;1.40;81.30
1107;DHT22;540;49.448;8.612;2023-02-28T06:41:25;1.30;81.30
1107;DHT22;540;49.448;8.612;2023-02-28T06:43:54;1.30;80.20
1107;DHT22;540;49.448;8.612;2023-02-28T06:46:23;0.80;79.40
1107;DHT22;540;49.448;8.612;2023-02-28T06:48:50;1.50;80.10
1107;DHT22;540;49.448;8.612;2023-02-28T06:51:20;1.40;80.90
1107;DHT22;540;49.448;8.612;2023-02-28T06:53:49;0.70;78.80
1107;DHT22;540;49.448;8.612;2023-02-28T06:56:19;1.50;80.00
1107;DHT22;540;49.448;8.612;2023-02-28T06:58:47;1.60;80.40
1107;DHT22;540;49.448;8.612;2023-02-28T07:01:17;1.90;79.20
1107;DHT22;540;49.448;8.612;2023-02-28T07:03:45;1.60;78.80
1107;DHT22;540;49.448;8.612;2023-02-28T07:06:13;1.70;78.20
1107;DHT22;540;49.448;8.612;2023-02-28T07:08:42;1.90;78.30
1107;DHT22;540;49.448;8.612;2023-02-28T07:11:10;1.80;77.60
1107;DHT22;540;49.448;8.612;2023-02-28T07:13:38;1.80;76.40
1107;DHT22;540;49.448;8.612;2023-02-28T07:16:07;2.00;77.00
1107;DHT22;540;49.448;8.612;2023-02-28T07:18:37;2.10;76.90
1107;DHT22;540;49.448;8.612;2023-02-28T07:21:07;2.20;75.60
1107;DHT22;540;49.448;8.612;2023-02-28T07:23:35;1.80;76.20
1107;DHT22;540;49.448;8.612;2023-02-28T07:26:06;2.40;75.50
1107;DHT22;540;49.448;8.612;2023-02-28T07:28:34;2.50;76.50
1107;DHT22;540;49.448;8.612;2023-02-28T07:31:05;2.40;74.30
1107;DHT22;540;49.448;8.612;2023-02-28T07:33:34;2.70;73.50
1107;DHT22;540;49.448;8.612;2023-02-28T07:36:02;2.50;73.10
1107;DHT22;540;49.448;8.612;2023-02-28T07:38:30;2.80;72.60
1107;DHT22;540;49.448;8.612;2023-02-28T07:40:58;2.80;72.20
1107;DHT22;540;49.448;8.612;2023-02-28T07:43:27;3.00;71.70
1107;DHT22;540;49.448;8.612;2023-02-28T07:45:55;2.90;71.30
1107;DHT22;540;49.448;8.612;2023-02-28T07:48:23;3.20;71.60
1107;DHT22;540;49.448;8.612;2023-02-28T07:50:54;3.60;70.80
1107;DHT22;540;49.448;8.612;2023-02-28T07:53:23;4.50;68.20
1107;DHT22;540;49.448;8.612;2023-02-28T07:55:50;4.70;63.10
1107;DHT22;540;49.448;8.612;2023-02-28T07:58:22;5.60;60.60
1107;DHT22;540;49.448;8.612;2023-02-28T08:00:51;6.20;58.70
1107;DHT22;540;49.448;8.612;2023-02-28T08:03:20;6.70;57.20
1107;DHT22;540;49.448;8.612;2023-02-28T08:05:48;6.70;56.70
1107;DHT22;540;49.448;8.612;2023-02-28T08:08:17;7.20;55.30
1107;DHT22;540;49.448;8.612;2023-02-28T08:10:44;7.70;53.10
1107;DHT22;540;49.448;8.612;2023-02-28T08:13:12;7.20;52.30
1107;DHT22;540;49.448;8.612;2023-02-28T08:15:41;7.20;52.80
1107;DHT22;540;49.448;8.612;2023-02-28T08:18:10;7.30;52.60
1107;DHT22;540;49.448;8.612;2023-02-28T08:20:38;7.80;51.70
1107;DHT22;540;49.448;8.612;2023-02-28T08:23:05;7.60;51.10
1107;DHT22;540;49.448;8.612;2023-02-28T08:25:33;7.20;51.60
1107;DHT22;540;49.448;8.612;2023-02-28T08:28:01;7.70;52.00
1107;DHT22;540;49.448;8.612;2023-02-28T08:30:29;7.70;51.00
1107;DHT22;540;49.448;8.612;2023-02-28T08:32:57;7.40;50.50
1107;DHT22;540;49.448;8.612;2023-02-28T08:35:26;7.90;50.40
1107;DHT22;540;49.448;8.612;2023-02-28T08:37:54;8.10;50.60
1107;DHT22;540;49.448;8.612;2023-02-28T08:40:21;8.30;49.90
1107;DHT22;540;49.448;8.612;2023-02-28T08:42:49;8.70;48.80
1107;DHT22;540;49.448;8.612;2023-02-28T08:45:17;8.90;48.10
1107;DHT22;540;49.448;8.612;2023-02-28T08:47:45;9.20;47.20
1107;DHT22;540;49.448;8.612;2023-02-28T08:50:12;9.30;46.40
1107;DHT22;540;49.448;8.612;2023-02-28T08:52:43;9.50;46.20
1107;DHT22;540;49.448;8.612;2023-02-28T08:55:11;10.10;44.30
1107;DHT22;540;49.448;8.612;2023-02-28T08:57:39;10.60;43.20
1107;DHT22;540;49.448;8.612;2023-02-28T09:00:08;10.20;42.30
1107;DHT22;540;49.448;8.612;2023-02-28T09:02:41;9.90;43.40
1107;DHT22;540;49.448;8.612;2023-02-28T09:05:11;10.00;43.50
1107;DHT22;540;49.448;8.612;2023-02-28T09:07:42;10.20;43.50
1107;DHT22;540;49.448;8.612;2023-02-28T09:10:12;10.70;42.80
1107;DHT22;540;49.448;8.612;2023-02-28T09:12:42;10.20;41.10
1107;DHT22;540;49.448;8.612;2023-02-28T09:15:14;10.90;40.80
1107;DHT22;540;49.448;8.612;2023-02-28T09:17:44;10.60;40.80
1107;DHT22;540;49.448;8.612;2023-02-28T09:20:15;10.40;41.20
1107;DHT22;540;49.448;8.612;2023-02-28T09:22:46;10.40;41.10
1107;DHT22;540;49.448;8.612;2023-02-28T09:25:16;11.00;40.70
1107;DHT22;540;49.448;8.612;2023-02-28T09:27:47;10.80;40.40
1107;DHT22;540;49.448;8.612;2023-02-28T09:30:17;10.80;40.40
1107;DHT22;540;49.448;8.612;2023-02-28T09:32:47;11.30;40.30
1107;DHT22;540;49.448;8.612;2023-02-28T09:35:19;11.70;39.40
1107;DHT22;540;49.448;8.612;2023-02-28T09:37:52;12.00;38.90
1107;DHT22;540;49.448;8.612;2023-02-28T09:40:24;11.70;37.20
1107;DHT22;540;49.448;8.612;2023-02-28T09:42:57;11.70;37.70
1107;DHT22;540;49.448;8.612;2023-02-28T09:45:31;11.70;37.70
1107;DHT22;540;49.448;8.612;2023-02-28T09:48:04;12.00;38.00
1107;DHT22;540;49.448;8.612;2023-02-28T09:50:40;10.60;37.60
1107;DHT22;540;49.448;8.612;2023-02-28T09:53:19;10.90;37.90
1107;DHT22;540;49.448;8.612;2023-02-28T09:55:52;11.20;38.40
1107;DHT22;540;49.448;8.612;2023-02-28T09:58:28;11.30;38.10
1107;DHT22;540;49.448;8.612;2023-02-28T10:01:02;11.10;37.90
1107;DHT22;540;49.448;8.612;2023-02-28T10:03:36;11.00;37.10
1107;DHT22;540;49.448;8.612;2023-02-28T10:06:11;11.30;37.40
1107;DHT22;540;49.448;8.612;2023-02-28T10:08:47;10.50;37.80
1107;DHT22;540;49.448;8.612;2023-02-28T10:11:20;9.90;39.70
1107;DHT22;540;49.448;8.612;2023-02-28T10:13:52;10.30;39.20
1107;DHT22;540;49.448;8.612;2023-02-28T10:16:26;10.10;39.50
1107;DHT22;540;49.448;8.612;2023-02-28T10:19:00;10.00;39.70
1107;DHT22;540;49.448;8.612;2023-02-28T10:21:33;8.90;41.20
1107;DHT22;540;49.448;8.612;2023-02-28T10:24:14;10.00;40.50
1107;DHT22;540;49.448;8.612;2023-02-28T10:26:45;10.30;39.80
1107;DHT22;540;49.448;8.612;2023-02-28T10:29:15;10.60;39.20
1107;DHT22;540;49.448;8.612;2023-02-28T10:31:43;10.50;38.80
1107;DHT22;540;49.448;8.612;2023-02-28T10:34:12;11.10;38.90
1107;DHT22;540;49.448;8.612;2023-02-28T10:36:41;11.80;37.80
1107;DHT22;540;49.448;8.612;2023-02-28T10:39:37;11.40;36.70
1107;DHT22;540;49.448;8.612;2023-02-28T10:42:19;11.20;37.70
1107;DHT22;540;49.448;8.612;2023-02-28T10:44:47;12.30;37.40
1107;DHT22;540;49.448;8.612;2023-02-28T10:47:17;12.00;36.50
1107;DHT22;540;49.448;8.612;2023-02-28T10:49:48;12.40;36.30
1107;DHT22;540;49.448;8.612;2023-02-28T10:52:36;13.30;35.30
1107;DHT22;540;49.448;8.612;2023-02-28T10:55:19;13.70;33.00
1107;DHT22;540;49.448;8.612;2023-02-28T10:57:47;13.10;33.00
1107;DHT22;540;49.448;8.612;2023-02-28T11:00:17;13.00;34.10
1107;DHT22;540;49.448;8.612;2023-02-28T11:02:46;12.90;34.00
1107;DHT22;540;49.448;8.612;2023-02-28T11:05:28;13.60;34.10
1107;DHT22;540;49.448;8.612;2023-02-28T11:08:02;13.70;33.20
1107;DHT22;540;49.448;8.612;2023-02-28T11:10:33;13.50;32.60
1107;DHT22;540;49.448;8.612;2023-02-28T11:13:01;13.60;32.70
1107;DHT22;540;49.448;8.612;2023-02-28T11:15:32;13.20;33.00
1107;DHT22;540;49.448;8.612;2023-02-28T11:18:04;12.60;33.60
1107;DHT22;540;49.448;8.612;2023-02-28T11:20:34;11.80;33.70
1107;DHT22;540;49.448;8.612;2023-02-28T11:23:03;11.80;34.60
1107;DHT22;540;49.448;8.612;2023-02-28T11:25:35;11.50;34.90
1107;DHT22;540;49.448;8.612;2023-02-28T11:28:06;11.10;35.50
1107;DHT22;540;49.448;8.612;2023-02-28T11:30:36;11.40;36.30
1107;DHT22;540;49.448;8.612;2023-02-28T11:33:23;11.40;36.60
1107;DHT22;540;49.448;8.612;2023-02-28T11:35:52;12.20;36.20
1107;DHT22;540;49.448;8.612;2023-02-28T11:38:22;12.70;35.10
1107;DHT22;540;49.448;8.612;2023-02-28T11:41:05;11.80;34.50
1107;DHT22;540;49.448;8.612;2023-02-28T11:43:50;10.30;35.00
1107;DHT22;540;49.448;8.612;2023-02-28T11:46:30;9.60;37.30
1107;DHT22;540;49.448;8.612;2023-02-28T11:49:13;9.80;38.40
1107;DHT22;540;49.448;8.612;2023-02-28T11:51:48;9.90;38.30
1107;DHT22;540;49.448;8.612;2023-02-28T11:54:27;10.10;37.90
1107;DHT22;540;49.448;8.612;2023-02-28T11:57:17;10.40;38.10
1107;DHT22;540;49.448;8.612;2023-02-28T11:59:56;10.90;38.70
1107;DHT22;540;49.448;8.612;2023-02-28T12:02:29;11.30;36.60
1107;DHT22;540;49.448;8.612;2023-02-28T12:05:17;11.50;35.60
1107;DHT22;540;49.448;8.612;2023-02-28T12:07:52;11.30;36.30
1107;DHT22;540;49.448;8.612;2023-02-28T12:10:26;12.10;36.60
1107;DHT22;540;49.448;8.612;2023-02-28T12:13:12;12.40;35.50
1107;DHT22;540;49.448;8.612;2023-02-28T12:15:51;12.50;35.50
1107;DHT22;540;49.448;8.612;2023-02-28T12:18:30;12.80;34.70
1107;DHT22;540;49.448;8.612;2023-02-28T12:21:11;13.00;34.20
1107;DHT22;540;49.448;8.612;2023-02-28T12:23:56;12.70;34.00
1107;DHT22;540;49.448;8.612;2023-02-28T12:26:36;12.10;33.80
1107;DHT22;540;49.448;8.612;2023-02-28T12:29:12;11.30;34.30
1107;DHT22;540;49.448;8.612;2023-02-28T12:31:46;10.20;36.40
1107;DHT22;540;49.448;8.612;2023-02-28T12:34:19;9.40;39.20
1107;DHT22;540;49.448;8.612;2023-02-28T12:36:49;9.90;40.60
1107;DHT22;540;49.448;8.612;2023-02-28T12:39:23;10.70;38.50
1107;DHT22;540;49.448;8.612;2023-02-28T12:41:54;11.00;37.40
1107;DHT22;540;49.448;8.612;2023-02-28T12:44:27;11.40;37.00
1107;DHT22;540;49.448;8.612;2023-02-28T12:47:00;11.70;36.20
1107;DHT22;540;49.448;8.612;2023-02-28T12:49:33;11.40;35.60
1107;DHT22;540;49.448;8.612;2023-02-28T12:52:04;12.00;35.70
1107;DHT22;540;49.448;8.612;2023-02-28T12:54:38;11.30;35.40
1107;DHT22;540;49.448;8.612;2023-02-28T12:57:12;10.30;36.50
1107;DHT22;540;49.448;8.612;2023-02-28T12:59:48;10.20;37.20
1107;DHT22;540;49.448;8.612;2023-02-28T13:02:49;10.30;38.10
1107;DHT22;540;49.448;8.612;2023-02-28T13:05:50;10.30;38.70
1107;DHT22;540;49.448;8.612;2023-02-28T13:08:46;10.50;38.70
1107;DHT22;540;49.448;8.612;2023-02-28T13:11:25;11.20;37.70
1107;DHT22;540;49.448;8.612;2023-02-28T13:13:58;11.80;37.20
1107;DHT22;540;49.448;8.612;2023-02-28T13:16:28;11.60;36.40
1107;DHT22;540;49.448;8.612;2023-02-28T13:19:09;11.20;36.40
1107;DHT22;540;49.448;8.612;2023-02-28T13:21:44;11.40;37.50
1107;DHT22;540;49.448;8.612;2023-02-28T13:27:33;10.80;38.00
1107;DHT22;540;49.448;8.612;2023-02-28T13:30:02;10.60;38.30
1107;DHT22;540;49.448;8.612;2023-02-28T13:33:19;10.40;38.00
1107;DHT22;540;49.448;8.612;2023-02-28T13:36:06;10.10;39.40
1107;DHT22;540;49.448;8.612;2023-02-28T13:38:37;10.70;39.10
1107;DHT22;540;49.448;8.612;2023-02-28T13:41:44;11.00;38.70
1107;DHT22;540;49.448;8.612;2023-02-28T13:44:13;11.00;37.60
1107;DHT22;540;49.448;8.612;2023-02-28T13:49:48;11.50;37.20
1107;DHT22;540;49.448;8.612;2023-02-28T13:52:20;10.10;37.30
1107;DHT22;540;49.448;8.612;2023-02-28T13:55:22;9.60;39.00
1107;DHT22;540;49.448;8.612;2023-02-28T13:58:08;9.50;40.80
1107;DHT22;540;49.448;8.612;2023-02-28T14:00:55;9.30;41.80
1107;DHT22;540;49.448;8.612;2023-02-28T14:03:58;9.60;41.80
1107;DHT22;540;49.448;8.612;2023-02-28T14:06:33;9.80;41.30
1107;DHT22;540;49.448;8.612;2023-02-28T14:09:03;9.90;41.00
1107;DHT22;540;49.448;8.612;2023-02-28T14:11:36;9.90;40.40
1107;DHT22;540;49.448;8.612;2023-02-28T14:14:05;9.30;39.90
1107;DHT22;540;49.448;8.612;2023-02-28T14:16:39;9.30;40.90
1107;DHT22;540;49.448;8.612;2023-02-28T14:19:12;9.40;41.90
1107;DHT22;540;49.448;8.612;2023-02-28T14:21:56;9.70;41.90
1107;DHT22;540;49.448;8.612;2023-02-28T14:24:49;9.60;41.70
1107;DHT22;540;49.448;8.612;2023-02-28T14:27:29;9.10;42.80
1107;DHT22;540;49.448;8.612;2023-02-28T14:30:16;9.40;43.10
1107;DHT22;540;49.448;8.612;2023-02-28T14:32:59;9.50;42.90
1107;DHT22;540;49.448;8.612;2023-02-28T14:35:40;8.90;43.30
1107;DHT22;540;49.448;8.612;2023-02-28T14:38:19;8.90;44.00
1107;DHT22;540;49.448;8.612;2023-02-28T14:40:49;8.60;43.70
1107;DHT22;540;49.448;8.612;2023-02-28T14:43:21;8.70;44.30
1107;DHT22;540;49.448;8.612;2023-02-28T14:45:51;8.20;45.00
1107;DHT22;540;49.448;8.612;2023-02-28T14:48:21;8.20;45.20
1107;DHT22;540;49.448;8.612;2023-02-28T14:50:53;8.30;45.50
1107;DHT22;540;49.448;8.612;2023-02-28T14:53:26;7.60;45.20
1107;DHT22;540;49.448;8.612;2023-02-28T14:55:55;8.10;45.60
1107;DHT22;540;49.448;8.612;2023-02-28T14:58:24;8.00;45.90
1107;DHT22;540;49.448;8.612;2023-02-28T15:00:54;8.10;45.70
1107;DHT22;540;49.448;8.612;2023-02-28T15:03:24;7.40;45.80
1107;DHT22;540;49.448;8.612;2023-02-28T15:05:53;8.00;46.40
1107;DHT22;540;49.448;8.612;2023-02-28T15:08:23;7.80;46.70
1107;DHT22;540;49.448;8.612;2023-02-28T15:10:55;7.40;46.90
1107;DHT22;540;49.448;8.612;2023-02-28T15:13:26;7.20;48.00
1107;DHT22;540;49.448;8.612;2023-02-28T15:16:00;7.10;48.50
1107;DHT22;540;49.448;8.612;2023-02-28T15:18:33;7.00;47.90
1107;DHT22;540;49.448;8.612;2023-02-28T15:21:06;7.50;47.70
1107;DHT22;540;49.448;8.612;2023-02-28T15:23:36;7.20;47.40
1107;DHT22;540;49.448;8.612;2023-02-28T15:26:05;7.20;47.90
1107;DHT22;540;49.448;8.612;2023-02-28T15:28:33;7.50;47.40
1107;DHT22;540;49.448;8.612;2023-02-28T15:31:02;7.20;47.40
1107;DHT22;540;49.448;8.612;2023-02-28T15:33:32;7.30;47.70
1107;DHT22;540;49.448;8.612;2023-02-28T15:36:10;7.40;48.10
1107;DHT22;540;49.448;8.612;2023-02-28T15:38:42;7.60;48.10
1107;DHT22;540;49.448;8.612;2023-02-28T15:41:24;7.40;48.10
1107;DHT22;540;49.448;8.612;2023-02-28T15:44:17;7.10;48.20
1107;DHT22;540;49.448;8.612;2023-02-28T15:46:55;7.10;48.30
1107;DHT22;540;49.448;8.612;2023-02-28T15:49:24;7.30;48.20
1107;DHT22;540;49.448;8.612;2023-02-28T15:51:53;7.10;48.20
1107;DHT22;540;49.448;8.612;2023-02-28T15:54:24;7.00;48.10
1107;DHT22;540;49.448;8.612;2023-02-28T15:56:56;7.20;47.90
1107;DHT22;540;49.448;8.612;2023-02-28T15:59:26;6.70;48.20
1107;DHT22;540;49.448;8.612;2023-02-28T16:02:13;6.70;48.70
1107;DHT22;540;49.448;8.612;2023-02-28T16:05:02;7.00;48.80
1107;DHT22;540;49.448;8.612;2023-02-28T16:07:42;6.70;48.80
1107;DHT22;540;49.448;8.612;2023-02-28T16:10:12;6.50;48.90
1107;DHT22;540;49.448;8.612;2023-02-28T16:12:41;6.40;49.80
1107;DHT22;540;49.448;8.612;2023-02-28T16:15:18;6.60;49.40
1107;DHT22;540;49.448;8.612;2023-02-28T16:17:47;6.40;50.00
1107;DHT22;540;49.448;8.612;2023-02-28T16:20:16;6.60;50.50
1107;DHT22;540;49.448;8.612;2023-02-28T16:22:44;6.40;49.80
1107;DHT22;540;49.448;8.612;2023-02-28T16:25:15;6.30;49.70
1107;DHT22;540;49.448;8.612;2023-02-28T16:27:45;6.60;50.20
1107;DHT22;540;49.448;8.612;2023-02-28T16:30:20;6.50;50.20
1107;DHT22;540;49.448;8.612;2023-02-28T16:32:48;6.40;50.20
1107;DHT22;540;49.448;8.612;2023-02-28T16:35:17;6.30;50.50
1107;DHT22;540;49.448;8.612;2023-02-28T16:37:45;6.30;50.80
1107;DHT22;540;49.448;8.612;2023-02-28T16:40:16;6.50;50.70
1107;DHT22;540;49.448;8.612;2023-02-28T16:42:49;6.20;51.00
1107;DHT22;540;49.448;8.612;2023-02-28T16:45:20;6.00;50.60
1107;DHT22;540;49.448;8.612;2023-02-28T16:47:48;6.10;50.80
1107;DHT22;540;49.448;8.612;2023-02-28T16:50:17;5.90;51.00
1107;DHT22;540;49.448;8.612;2023-02-28T16:52:46;6.20;51.60
1107;DHT22;540;49.448;8.612;2023-02-28T16:55:15;5.80;51.80
1107;DHT22;540;49.448;8.612;2023-02-28T16:57:44;5.70;52.00
1107;DHT22;540;49.448;8.612;2023-02-28T17:00:15;5.80;52.30
1107;DHT22;540;49.448;8.612;2023-02-28T17:02:43;5.80;53.20
1107;DHT22;540;49.448;8.612;2023-02-28T17:05:12;5.60;52.70
1107;DHT22;540;49.448;8.612;2023-02-28T17:07:42;5.60;53.20
1107;DHT22;540;49.448;8.612;2023-02-28T17:10:15;5.60;53.70
1107;DHT22;540;49.448;8.612;2023-02-28T17:12:44;5.70;53.70
1107;DHT22;540;49.448;8.612;2023-02-28T17:15:13;5.60;53.50
1107;DHT22;540;49.448;8.612;2023-02-28T17:17:42;5.30;53.70
1107;DHT22;540;49.448;8.612;2023-02-28T17:20:13;5.50;54.00
1107;DHT22;540;49.448;8.612;2023-02-28T17:22:41;5.20;53.90